Time;durP1;ratioP1;P1;durP2;ratioP2;P2;SDS_P1;SDS_P2;PMS_P1;PMS_P2;Temp;Humidity;BMP_temperature;BMP_pressure;BME280_temperature;BME280_humidity;BME280_pressure;Samples;Min_cycle;Max_cycle;Signal;HPM_P1;HPM_P2
2022/05/25 00:02:05;;;;;;;;;;;16.50;67.40;;;15.74;63.09;96026.63;4127718;34;19911;-85
2022/05/25 00:04:34;;;;;;;;;;;16.60;67.50;;;15.74;63.00;96021.94;4150380;34;20129;-85
2022/05/25 00:07:04;;;;;;;;;;;16.50;67.50;;;15.74;63.08;96021.09;4149918;34;20115;-86
2022/05/25 00:09:34;;;;;;;;;;;16.50;67.60;;;15.72;62.91;96013.13;4127720;34;20002;-83
2022/05/25 00:12:03;;;;;;;;;;;16.50;67.60;;;15.74;62.95;96032.97;4150183;34;20139;-85
2022/05/25 00:14:32;;;;;;;;;;;16.50;67.50;;;15.74;63.22;96021.09;4150361;34;19911;-85
2022/05/25 00:17:01;;;;;;;;;;;16.50;67.60;;;15.71;62.99;96016.19;4127188;34;19910;-84
2022/05/25 00:22:15;;;;;;;;;;;16.50;67.60;;;15.72;62.96;96015.06;4150213;34;19903;-85
2022/05/25 00:24:45;;;;;;;;;;;16.50;67.40;;;15.72;63.00;96012.31;4127253;34;20005;-85
2022/05/25 00:27:14;;;;;;;;;;;16.50;67.40;;;15.71;62.88;96014.25;4149596;34;20225;-85
2022/05/25 00:29:43;;;;;;;;;;;16.50;67.40;;;15.71;62.87;96011.50;4127536;34;19904;-85
2022/05/25 00:32:11;;;;;;;;;;;16.50;67.50;;;15.69;62.74;96007.38;4149977;34;19911;-85
2022/05/25 00:34:40;;;;;;;;;;;16.50;67.50;;;15.71;62.96;96010.66;4127601;34;19911;-85
2022/05/25 00:37:08;;;;;;;;;;;16.50;67.40;;;15.68;63.11;96009.34;4126999;34;19904;-85
2022/05/25 00:39:39;;;;;;;;;;;16.50;67.50;;;15.69;62.97;96012.91;4149394;34;19910;-85
2022/05/25 00:42:10;;;;;;;;;;;16.50;67.50;;;15.69;62.90;96010.97;4127273;34;20123;-86
2022/05/25 00:44:38;;;;;;;;;;;16.50;67.50;;;15.69;62.99;96001.88;4127407;34;19995;-84
2022/05/25 00:47:08;;;;;;;;;;;16.50;67.50;;;15.68;62.93;96001.06;4149335;34;19980;-85
2022/05/25 00:49:36;;;;;;;;;;;16.50;67.40;;;15.69;62.87;96001.88;4127235;34;20376;-85
2022/05/25 00:52:07;;;;;;;;;;;16.40;67.30;;;15.68;62.98;95994.75;4149942;34;20084;-85
2022/05/25 00:54:40;;;;;;;;;;;16.50;67.60;;;15.67;62.95;95993.09;4126865;34;20036;-85
2022/05/25 00:57:15;;;;;;;;;;;16.40;67.30;;;15.64;63.05;95981.56;4126761;34;19973;-85
2022/05/25 00:59:51;;;;;;;;;;;16.40;67.30;;;15.65;63.18;95985.97;4149737;34;19904;-85
2022/05/25 01:02:19;;;;;;;;;;;16.40;67.30;;;15.63;62.82;95990.13;4127311;34;19904;-86
2022/05/25 01:04:51;;;;;;;;;;;16.40;67.30;;;15.62;62.90;95974.72;4127051;34;20094;-85
2022/05/25 01:07:29;;;;;;;;;;;16.40;67.30;;;15.65;63.00;95997.00;4149329;34;19904;-86
2022/05/25 01:10:09;;;;;;;;;;;16.40;67.30;;;15.64;63.01;95995.34;4149583;34;19910;-84
2022/05/25 01:13:00;;;;;;;;;;;16.40;67.40;;;15.63;62.98;95993.72;4127190;34;19910;-85
2022/05/25 01:15:33;;;;;;;;;;;16.40;67.40;;;15.63;63.08;96002.00;4149726;34;20124;-85
2022/05/25 01:18:12;;;;;;;;;;;16.40;67.30;;;15.62;62.74;96000.38;4126661;34;19927;-85
2022/05/25 01:20:43;;;;;;;;;;;16.40;68.20;;;15.63;63.04;96010.28;4127051;34;19978;-85
2022/05/25 01:23:48;;;;;;;;;;;16.40;67.30;;;15.62;63.16;96008.63;4126925;34;20131;-85
2022/05/25 01:27:00;;;;;;;;;;;16.40;67.40;;;15.62;63.13;96007.84;4126363;34;19904;-84
2022/05/25 01:30:08;;;;;;;;;;;16.40;67.30;;;15.63;63.05;96004.75;4122411;34;20076;-85
2022/05/25 01:32:45;;;;;;;;;;;16.40;67.40;;;15.60;62.97;95994.31;4144884;34;19904;-84
2022/05/25 01:35:23;;;;;;;;;;;16.40;67.40;;;15.61;63.11;95998.72;4100133;34;19911;-85
2022/05/25 01:37:56;;;;;;;;;;;16.40;67.40;;;15.60;63.07;95999.84;4121680;34;20174;-84
2022/05/25 01:40:29;;;;;;;;;;;16.40;67.40;;;15.59;62.81;95998.22;4122063;34;19911;-86
2022/05/25 01:43:00;;;;;;;;;;;16.40;67.40;;;15.59;63.20;95998.22;4099875;34;19904;-85
2022/05/25 01:45:32;;;;;;;;;;;16.40;67.40;;;15.59;63.00;95998.22;4122578;34;19946;-85
2022/05/25 01:48:04;;;;;;;;;;;16.40;67.50;;;15.59;63.00;95992.69;4121750;34;20064;-85
2022/05/25 01:50:37;;;;;;;;;;;16.40;67.50;;;15.59;62.89;95995.44;4101233;34;19904;-84
2022/05/25 01:53:07;;;;;;;;;;;16.40;67.40;;;15.58;62.74;95995.78;4102504;34;19985;-85
2022/05/25 01:55:38;;;;;;;;;;;16.30;67.40;;;15.57;63.05;95994.94;4124696;34;20156;-84
2022/05/25 01:58:10;;;;;;;;;;;16.40;67.50;;;15.59;63.03;96008.44;4129449;34;19903;-84
2022/05/25 02:00:42;;;;;;;;;;;16.30;67.50;;;15.57;63.07;96005.97;4129209;34;19904;-85
2022/05/25 02:06:14;;;;;;;;;;;16.30;67.50;;;15.56;62.94;96004.34;4128733;34;19931;-85
2022/05/25 02:08:50;;;;;;;;;;;16.30;67.70;;;15.56;62.99;96009.06;4151591;34;19911;-85
2022/05/25 02:11:24;;;;;;;;;;;16.30;67.40;;;15.55;63.01;95999.97;4151549;34;19944;-85
2022/05/25 02:14:02;;;;;;;;;;;16.30;67.60;;;15.55;63.09;96008.25;4151555;34;20011;-84
2022/05/25 02:16:41;;;;;;;;;;;16.30;67.60;;;15.55;63.03;96005.50;4128518;34;19965;-85
2022/05/25 02:19:15;;;;;;;;;;;16.30;67.60;;;15.54;63.05;96012.13;4146840;34;19975;-85
2022/05/25 02:21:48;;;;;;;;;;;16.30;67.50;;;15.55;63.64;96015.69;4124229;34;20102;-85
2022/05/25 02:24:22;;;;;;;;;;;16.30;67.70;;;15.54;63.13;96017.66;4124036;34;19904;-85
2022/05/25 02:26:53;;;;;;;;;;;16.30;67.60;;;15.54;63.08;96022.34;4122957;34;19967;-85
2022/05/25 02:29:25;;;;;;;;;;;16.30;67.60;;;15.54;63.25;96025.94;4119478;34;20165;-85
2022/05/25 02:31:58;;;;;;;;;;;16.30;67.60;;;15.53;63.17;96024.28;4102224;34;20064;-85
2022/05/25 02:34:27;;;;;;;;;;;16.30;67.60;;;15.53;63.29;96027.03;4101984;34;20143;-85
2022/05/25 02:36:56;;;;;;;;;;;16.30;67.60;;;15.52;63.61;96022.66;4123565;34;19911;-86
2022/05/25 02:39:25;;;;;;;;;;;16.30;67.70;;;15.52;63.17;96030.94;4101921;34;19904;-85
2022/05/25 02:41:55;;;;;;;;;;;16.40;67.70;;;15.51;63.18;96029.28;4101775;34;19911;-85
2022/05/25 02:44:23;;;;;;;;;;;16.30;67.70;;;15.52;63.06;96036.44;4101731;34;19981;-85
2022/05/25 02:46:53;;;;;;;;;;;16.30;67.60;;;15.53;63.20;96031.72;4123788;34;19904;-85
2022/05/25 02:49:22;;;;;;;;;;;16.30;67.70;;;15.49;63.14;96032.34;4124036;34;19911;-85
2022/05/25 02:51:51;;;;;;;;;;;16.30;67.70;;;15.52;63.04;96032.84;4124085;34;20243;-84
2022/05/25 02:54:22;;;;;;;;;;;16.30;67.60;;;15.53;63.37;96035.31;4101816;34;20199;-85
2022/05/25 02:56:50;;;;;;;;;;;16.30;67.70;;;15.52;63.17;96033.69;4124637;34;20120;-85
2022/05/25 02:59:19;;;;;;;;;;;16.30;67.60;;;15.53;63.15;96040.84;4123816;34;20166;-85
2022/05/25 03:01:47;;;;;;;;;;;16.30;67.60;;;15.53;63.15;96037.25;4101347;34;20018;-84
2022/05/25 03:04:17;;;;;;;;;;;16.30;67.60;;;15.49;63.07;96020.50;4123849;34;19911;-86
2022/05/25 03:06:46;;;;;;;;;;;16.30;67.60;;;15.52;63.11;96019.91;4101250;34;19911;-85
2022/05/25 03:09:15;;;;;;;;;;;16.30;67.60;;;15.52;63.30;96022.66;4101506;34;19904;-85
2022/05/25 03:11:43;;;;;;;;;;;16.30;67.70;;;15.52;63.36;96035.63;4101481;34;19933;-85
2022/05/25 03:14:12;;;;;;;;;;;16.30;67.90;;;15.50;63.10;96030.41;4101573;34;19984;-85
2022/05/25 03:16:40;;;;;;;;;;;16.30;67.70;;;15.52;63.22;96035.63;4123436;34;20259;-85
2022/05/25 03:19:09;;;;;;;;;;;16.30;67.70;;;15.50;63.23;96033.16;4123929;34;20015;-85
2022/05/25 03:21:39;;;;;;;;;;;16.30;67.70;;;15.54;62.88;96038.88;4123697;34;20123;-85
2022/05/25 03:24:09;;;;;;;;;;;16.30;67.60;;;15.53;63.00;96037.25;4123675;34;19997;-84
2022/05/25 03:26:38;;;;;;;;;;;16.30;67.70;;;15.53;63.07;96031.72;4100847;34;20173;-84
2022/05/25 03:29:06;;;;;;;;;;;16.30;67.60;;;15.55;62.90;96037.75;4123620;34;20150;-84
2022/05/25 03:31:36;;;;;;;;;;;16.30;67.50;;;15.55;62.79;96030.31;4123726;34;20081;-85
2022/05/25 03:34:04;;;;;;;;;;;16.30;67.30;;;15.56;62.75;96033.88;4101201;34;20300;-85
2022/05/25 03:36:33;;;;;;;;;;;16.30;67.30;;;15.55;63.31;96038.59;4100881;34;20414;-85
2022/05/25 03:39:03;;;;;;;;;;;16.30;67.30;;;15.56;62.72;96042.16;4123544;34;20512;-85
2022/05/25 03:41:32;;;;;;;;;;;16.30;67.20;;;15.55;62.95;96046.88;4123372;34;19911;-85
2022/05/25 03:44:00;;;;;;;;;;;16.40;67.20;;;15.58;62.85;96057.28;4123487;34;19905;-85
2022/05/25 03:46:29;;;;;;;;;;;16.40;67.10;;;15.61;62.82;96061.38;4123050;34;19904;-85
2022/05/25 03:48:57;;;;;;;;;;;16.40;67.20;;;15.61;62.74;96062.19;4123553;34;20317;-86
2022/05/25 03:51:26;;;;;;;;;;;16.40;67.00;;;15.63;62.98;96054.44;4123367;34;19913;-86
2022/05/25 03:53:54;;;;;;;;;;;16.40;66.90;;;15.64;62.75;96052.47;4102630;34;20039;-84
2022/05/25 03:56:25;;;;;;;;;;;16.40;66.60;;;15.64;62.42;96047.78;4127515;34;19910;-85
2022/05/25 03:58:54;;;;;;;;;;;16.40;66.60;;;15.68;62.59;96060.97;4127767;34;20134;-85
2022/05/25 04:01:22;;;;;;;;;;;16.50;66.80;;;15.67;62.38;96064.84;4127864;34;20134;-85
2022/05/25 04:03:51;;;;;;;;;;;16.50;66.80;;;15.71;62.16;96071.38;4150366;34;19903;-85
2022/05/25 04:06:19;;;;;;;;;;;16.50;66.80;;;15.70;62.35;96064.22;4150983;34;20250;-85
2022/05/25 04:08:48;;;;;;;;;;;16.50;66.70;;;15.72;62.08;96061.97;4150400;34;20057;-85
2022/05/25 04:11:16;;;;;;;;;;;16.50;66.60;;;15.71;62.41;96061.19;4150435;34;20047;-85
2022/05/25 04:13:46;;;;;;;;;;;16.50;66.80;;;15.73;62.44;96066.38;4126883;34;20147;-85
2022/05/25 04:16:15;;;;;;;;;;;16.50;66.80;;;15.75;62.53;96064.13;4149775;34;19919;-85
2022/05/25 04:18:44;;;;;;;;;;;16.50;66.80;;;15.77;62.50;96064.66;4150291;34;19912;-85
2022/05/25 04:21:12;;;;;;;;;;;16.60;66.90;;;15.77;62.50;96064.66;4150260;34;19904;-85
2022/05/25 04:23:41;;;;;;;;;;;16.60;66.90;;;15.82;62.70;96066.47;4150245;34;20020;-84
2022/05/25 04:26:09;;;;;;;;;;;16.60;66.90;;;15.80;62.79;96064.03;4127229;34;19910;-85
2022/05/25 04:28:38;;;;;;;;;;;16.60;67.20;;;15.84;63.37;96058.72;4127389;34;19911;-85
2022/05/25 04:31:08;;;;;;;;;;;16.60;67.50;;;15.85;63.48;96057.63;4145538;34;19911;-85
2022/05/25 04:33:39;;;;;;;;;;;16.70;67.90;;;15.87;63.77;96052.63;4100844;34;19910;-85
2022/05/25 04:36:08;;;;;;;;;;;16.70;68.00;;;15.87;63.63;96047.91;4122656;34;19911;-85
2022/05/25 04:38:36;;;;;;;;;;;16.70;68.10;;;15.89;63.54;96050.34;4123028;34;20126;-85
2022/05/25 04:41:05;;;;;;;;;;;16.70;67.90;;;15.89;63.54;96058.63;4100585;34;19911;-85
2022/05/25 04:43:33;;;;;;;;;;;16.70;68.00;;;15.89;63.39;96056.69;4122796;34;20129;-85
2022/05/25 04:46:09;;;;;;;;;;;16.70;67.80;;;15.94;63.63;96064.84;4100202;34;19911;-85
2022/05/25 04:48:38;;;;;;;;;;;16.70;68.00;;;15.93;63.52;96052.19;4122547;34;19904;-85
2022/05/25 04:51:07;;;;;;;;;;;16.80;68.00;;;15.97;63.55;96062.59;4100559;34;20200;-85
2022/05/25 04:53:35;;;;;;;;;;;16.80;68.10;;;15.99;63.73;96063.09;4122845;34;19961;-85
2022/05/25 04:58:52;;;;;;;;;;;16.80;68.20;;;16.02;63.55;96054.22;4122741;34;19904;-85
2022/05/25 05:01:22;;;;;;;;;;;16.80;67.90;;;16.03;63.64;96066.91;4122817;34;19904;-85
2022/05/25 05:03:51;;;;;;;;;;;16.80;67.90;;;16.04;63.47;96061.06;4122709;34;19956;-85
2022/05/25 05:06:19;;;;;;;;;;;16.90;68.00;;;16.07;63.41;96057.69;4100003;34;20325;-85
2022/05/25 05:08:48;;;;;;;;;;;16.90;67.80;;;16.09;63.55;96065.63;4122546;34;20220;-85
2022/05/25 05:11:18;;;;;;;;;;;16.90;67.70;;;16.11;63.35;96060.63;4136594;34;19904;-85
2022/05/25 05:13:47;;;;;;;;;;;16.90;67.70;;;16.13;63.12;96065.88;4127148;34;19980;-85
2022/05/25 05:16:17;;;;;;;;;;;16.90;67.70;;;16.13;63.40;96069.44;4149302;34;20146;-85
2022/05/25 05:18:50;;;;;;;;;;;16.90;67.80;;;16.14;63.35;96062.78;4149702;34;19903;-84
2022/05/25 05:21:28;;;;;;;;;;;16.90;67.90;;;16.14;63.66;96071.06;4149745;34;19904;-86
2022/05/25 05:23:56;;;;;;;;;;;17.00;67.90;;;16.15;63.46;96078.22;4127064;34;19919;-85
2022/05/25 05:26:25;;;;;;;;;;;17.00;67.90;;;16.15;63.39;96075.47;4130783;34;20166;-85
2022/05/25 05:28:54;;;;;;;;;;;17.00;67.70;;;16.17;63.41;96084.25;4131497;34;20221;-85
2022/05/25 05:31:22;;;;;;;;;;;17.00;67.80;;;16.16;63.27;96079.88;4154191;34;19904;-84
2022/05/25 05:33:53;;;;;;;;;;;17.00;67.80;;;16.18;63.24;96080.38;4131491;34;20044;-85
2022/05/25 05:36:24;;;;;;;;;;;17.00;67.70;;;16.18;63.56;96074.84;4131051;34;20131;-85
2022/05/25 05:38:54;;;;;;;;;;;17.00;67.70;;;16.22;63.16;96092.41;4131561;34;19911;-85
2022/05/25 05:41:24;;;;;;;;;;;17.00;67.60;;;16.24;63.25;96083.84;4154014;34;19904;-86
2022/05/25 05:43:53;;;;;;;;;;;17.10;67.70;;;16.24;63.49;96073.59;4131323;34;19910;-84
2022/05/25 05:46:21;;;;;;;;;;;17.10;67.80;;;16.28;63.05;96081.28;4130975;34;19911;-85
2022/05/25 05:48:51;;;;;;;;;;;17.10;67.50;;;16.30;63.25;96082.59;4154064;34;19904;-85
2022/05/25 05:51:20;;;;;;;;;;;17.10;67.50;;;16.32;63.07;96077.56;4154055;34;19959;-85
2022/05/25 05:53:49;;;;;;;;;;;17.10;67.50;;;16.35;62.88;96079.72;4131202;34;19903;-85
2022/05/25 05:56:19;;;;;;;;;;;17.10;67.20;;;16.38;62.96;96083.78;4154452;34;20348;-85
2022/05/25 05:58:48;;;;;;;;;;;17.20;67.30;;;16.42;63.23;96082.84;4131268;34;19911;-85
2022/05/25 06:01:16;;;;;;;;;;;17.20;67.40;;;16.43;63.02;96072.63;4153856;34;19903;-86
2022/05/25 06:03:45;;;;;;;;;;;17.20;67.20;;;16.47;62.82;96081.91;4131282;34;19904;-85
2022/05/25 06:06:15;;;;;;;;;;;17.30;67.40;;;16.49;62.92;96096.25;4130867;34;20055;-86
2022/05/25 06:08:46;;;;;;;;;;;17.30;67.40;;;16.49;63.14;96090.72;4153568;34;20094;-86
2022/05/25 06:11:15;;;;;;;;;;;17.30;67.30;;;16.50;62.99;96086.81;4130765;34;19917;-85
2022/05/25 06:13:43;;;;;;;;;;;17.30;67.40;;;16.54;62.88;96104.44;4131180;34;19919;-86
2022/05/25 06:21:45;;;;;;;;;;;17.40;67.30;;;16.55;62.98;96108.81;4131218;34;20180;-86
2022/05/25 06:24:14;;;;;;;;;;;17.40;67.30;;;16.56;63.29;96107.69;4153735;34;19904;-86
2022/05/25 06:26:43;;;;;;;;;;;17.40;67.40;;;16.58;63.17;96115.66;4153290;34;20235;-85
2022/05/25 06:29:16;;;;;;;;;;;17.40;67.40;;;16.59;63.29;96110.97;4130951;34;19941;-85
2022/05/25 06:31:45;;;;;;;;;;;17.40;67.40;;;16.60;63.17;96113.41;4131087;34;20067;-85
2022/05/25 06:34:13;;;;;;;;;;;17.40;67.40;;;16.61;63.04;96111.47;4130918;34;19970;-86
2022/05/25 06:36:43;;;;;;;;;;;17.40;67.30;;;16.59;63.04;96110.97;4128877;34;20176;-86
2022/05/25 06:39:12;;;;;;;;;;;17.40;67.30;;;16.62;63.09;96104.81;4152314;34;20178;-86
2022/05/25 06:41:41;;;;;;;;;;;17.40;67.30;;;16.65;63.03;96109.72;4128432;34;20231;-86
2022/05/25 06:44:09;;;;;;;;;;;17.50;67.30;;;16.67;62.95;96115.75;4128625;34;19910;-85
2022/05/25 06:46:38;;;;;;;;;;;17.50;67.30;;;16.70;62.95;96117.91;4128327;34;20154;-86
2022/05/25 06:49:06;;;;;;;;;;;17.50;67.30;;;16.74;62.62;96126.38;4128713;34;19995;-86
2022/05/25 06:51:36;;;;;;;;;;;17.50;67.10;;;16.76;62.65;96124.94;4128593;34;20459;-86
2022/05/25 06:54:06;;;;;;;;;;;17.50;67.00;;;16.78;62.48;96133.72;4151228;34;20146;-85
2022/05/25 06:56:35;;;;;;;;;;;17.60;67.00;;;16.81;62.61;96138.63;4128229;34;20298;-85
2022/05/25 06:59:03;;;;;;;;;;;17.60;66.90;;;16.84;62.40;96140.78;4128583;34;20038;-85
2022/05/25 07:01:32;;;;;;;;;;;17.60;66.80;;;16.87;62.37;96145.66;4150944;34;19903;-86
2022/05/25 07:04:01;;;;;;;;;;;17.60;66.80;;;16.90;62.26;96143.41;4128431;34;19904;-85
2022/05/25 07:06:29;;;;;;;;;;;17.60;66.70;;;16.92;62.32;96164.06;4150592;34;19911;-85
2022/05/25 07:13:42;;;;;;;;;;;17.70;66.70;;;16.94;62.46;96180.38;4126842;34;19904;-86
2022/05/25 07:16:13;;;;;;;;;;;17.70;66.60;;;16.91;62.42;96183.75;4128015;34;20004;-86
2022/05/25 07:18:45;;;;;;;;;;;17.70;66.60;;;16.87;62.48;96187.13;4128309;34;20262;-86
2022/05/25 07:21:16;;;;;;;;;;;17.70;66.70;;;16.85;62.64;96186.63;4127765;34;19904;-86
2022/05/25 07:23:46;;;;;;;;;;;17.70;66.80;;;16.84;62.59;96195.25;4105489;34;19907;-85
2022/05/25 07:26:41;;;;;;;;;;;17.60;66.80;;;16.83;62.28;96199.97;4105368;34;20332;-85
2022/05/25 07:29:15;;;;;;;;;;;17.60;66.80;;;16.81;62.82;96207.75;4128292;34;19904;-86
2022/05/25 07:31:48;;;;;;;;;;;17.60;66.90;;;16.79;62.67;96218.31;4127968;34;20034;-86
2022/05/25 07:34:20;;;;;;;;;;;17.60;66.90;;;16.79;62.83;96212.78;4128499;34;20169;-86
2022/05/25 07:40:01;;;;;;;;;;;17.60;67.00;;;16.78;62.76;96202.03;4102537;34;20136;-87
2022/05/25 07:42:55;;;;;;;;;;;17.60;67.10;;;16.80;62.97;96206.13;4150856;34;20101;-86
2022/05/25 07:45:26;;;;;;;;;;;17.60;67.20;;;16.81;62.70;96212.44;4101380;34;20114;-87
2022/05/25 07:48:30;;;;;;;;;;;17.60;67.20;;;16.86;62.69;96206.81;4078893;34;20393;-84
2022/05/25 07:50:59;;;;;;;;;;;17.60;67.10;;;16.89;62.56;96203.44;4101187;34;19911;-86
2022/05/25 07:54:20;;;;;;;;;;;17.70;68.00;;;16.88;62.43;96202.59;4101062;34;19904;-87
2022/05/25 07:57:03;;;;;;;;;;;17.70;67.00;;;16.87;62.56;96212.03;4078598;34;20131;-86
2022/05/25 07:59:32;;;;;;;;;;;17.70;67.00;;;16.83;62.71;96226.78;4104314;34;19911;-86
2022/05/25 08:07:37;;;;;;;;;;;17.60;67.30;;;16.72;63.16;96215.97;4105233;34;19911;-85
2022/05/25 08:10:10;;;;;;;;;;;17.50;67.50;;;16.68;63.18;96205.84;4127580;34;20069;-85
2022/05/25 08:17:04;;;;;;;;;;;17.50;67.80;;;16.58;63.59;96226.22;4032415;34;20402;-85
2022/05/25 08:20:01;;;;;;;;;;;17.40;68.10;;;16.56;63.81;96234.00;4026057;34;19912;-86
2022/05/25 08:25:45;;;;;;;;;;;17.40;68.20;;;16.51;63.87;96257.03;4047485;34;20117;-87
2022/05/25 08:28:14;;;;;;;;;;;17.30;68.30;;;16.50;63.96;96255.38;4115578;34;19904;-86
2022/05/25 08:30:43;;;;;;;;;;;17.30;68.50;;;16.50;64.07;96257.34;4105257;34;20081;-85
2022/05/25 08:33:17;;;;;;;;;;;17.30;68.40;;;16.48;64.16;96260.41;4127689;34;19904;-85
2022/05/25 08:35:46;;;;;;;;;;;17.30;68.50;;;16.48;64.16;96254.06;4145322;34;19910;-85
2022/05/25 08:38:21;;;;;;;;;;;17.30;68.70;;;16.47;64.19;96252.44;4100357;34;19957;-85
2022/05/25 08:40:51;;;;;;;;;;;17.30;68.70;;;16.47;64.23;96253.22;4100335;34;19911;-85
2022/05/25 08:43:25;;;;;;;;;;;17.30;68.70;;;16.48;64.14;96256.84;4101080;34;20090;-86
2022/05/25 08:45:55;;;;;;;;;;;17.30;68.70;;;16.48;64.07;96262.34;4100666;34;20071;-87
2022/05/25 08:48:25;;;;;;;;;;;17.30;68.80;;;16.47;64.15;96253.22;4100528;34;19922;-87
2022/05/25 08:54:47;;;;;;;;;;;17.30;68.70;;;16.51;64.09;96257.03;4074146;34;20428;-87
2022/05/25 08:57:21;;;;;;;;;;;17.30;68.70;;;16.53;64.06;96257.53;4078065;34;20366;-86
2022/05/25 09:00:04;;;;;;;;;;;17.30;68.60;;;16.53;63.99;96257.53;4078027;34;19927;-85
2022/05/25 09:06:55;;;;;;;;;;;17.40;68.50;;;16.59;63.94;96246.41;4071361;34;20008;-86
2022/05/25 09:09:27;;;;;;;;;;;17.40;68.50;;;16.58;63.96;96237.28;4078519;34;19904;-86
2022/05/25 09:11:57;;;;;;;;;;;17.40;68.50;;;16.59;63.86;96227.06;4078334;34;20208;-86
2022/05/25 09:14:30;;;;;;;;;;;17.40;68.40;;;16.59;64.00;96216.81;4100257;34;19911;-87
2022/05/25 09:17:00;;;;;;;;;;;17.40;68.40;;;16.60;64.12;96237.78;4100005;34;19966;-86
2022/05/25 09:19:32;;;;;;;;;;;17.40;68.40;;;16.61;64.14;96244.13;4078333;34;19904;-86
2022/05/25 09:22:06;;;;;;;;;;;17.40;68.50;;;16.62;64.06;96237.47;4100298;34;19997;-86
2022/05/25 09:24:35;;;;;;;;;;;17.40;68.40;;;16.63;63.84;96250.16;4078277;34;19911;-85
2022/05/25 09:27:05;;;;;;;;;;;17.40;68.40;;;16.63;64.20;96239.94;4099748;34;19911;-86
2022/05/25 09:29:34;;;;;;;;;;;17.40;68.50;;;16.60;63.94;96226.72;4100313;34;19971;-85
2022/05/25 09:32:13;;;;;;;;;;;17.40;68.50;;;16.61;64.00;96233.06;4078374;34;19913;-86
2022/05/25 09:34:52;;;;;;;;;;;17.40;68.50;;;16.61;64.12;96230.31;4100236;34;19904;-85
2022/05/25 09:37:30;;;;;;;;;;;17.40;68.70;;;16.59;64.17;96218.75;4122251;34;19911;-86
2022/05/25 09:40:02;;;;;;;;;;;17.40;68.50;;;16.60;64.07;96212.91;4077999;34;19982;-85
2022/05/25 09:42:34;;;;;;;;;;;17.40;68.60;;;16.60;64.11;96201.03;4100241;34;20092;-86
2022/05/25 09:45:02;;;;;;;;;;;17.40;68.70;;;16.59;64.10;96193.88;4077913;34;19911;-86
2022/05/25 09:47:41;;;;;;;;;;;17.40;68.80;;;16.56;64.29;96187.84;4077433;34;19904;-86
2022/05/25 09:50:16;;;;;;;;;;;17.40;68.80;;;16.55;64.30;96188.97;4077700;34;19904;-86
2022/05/25 09:52:49;;;;;;;;;;;17.40;68.70;;;16.54;64.46;96192.03;4123339;34;19991;-86
2022/05/25 09:55:22;;;;;;;;;;;17.30;68.90;;;16.51;64.31;96178.84;4100040;34;20043;-86
2022/05/25 09:57:58;;;;;;;;;;;17.30;69.00;;;16.50;64.41;96166.97;4077703;34;19904;-86
2022/05/25 10:00:43;;;;;;;;;;;17.30;69.10;;;16.48;64.46;96154.59;4078132;34;20126;-87
2022/05/25 10:03:13;;;;;;;;;;;17.30;69.10;;;16.48;64.55;96149.88;4077944;34;20089;-87
2022/05/25 10:05:56;;;;;;;;;;;17.30;69.40;;;16.47;64.81;96141.91;4099936;34;20239;-87
2022/05/25 10:08:36;;;;;;;;;;;17.30;69.30;;;16.46;64.79;96143.84;4099863;34;20151;-86
2022/05/25 10:11:29;;;;;;;;;;;17.30;69.40;;;16.47;64.71;96133.63;4077784;34;19904;-86
2022/05/25 10:13:58;;;;;;;;;;;17.30;69.50;;;16.46;64.75;96134.75;4102198;34;20068;-86
2022/05/25 10:16:31;;;;;;;;;;;17.30;69.50;;;16.46;64.68;96126.44;4101827;34;23711;-86
2022/05/25 10:19:01;;;;;;;;;;;17.20;69.40;;;16.46;65.00;96124.50;4101942;34;19920;-86
2022/05/25 10:21:31;;;;;;;;;;;17.20;69.50;;;16.46;64.99;96118.16;4080152;34;19982;-86
2022/05/25 10:24:01;;;;;;;;;;;17.20;69.50;;;16.46;65.02;96115.41;4080123;34;20197;-86
2022/05/25 10:26:35;;;;;;;;;;;17.20;69.50;;;16.45;64.87;96116.53;4101850;34;20104;-85
2022/05/25 10:29:10;;;;;;;;;;;17.20;69.50;;;16.45;64.97;96125.66;4102164;34;20155;-86
2022/05/25 10:37:26;;;;;;;;;;;17.20;69.60;;;16.46;64.94;96151.31;4079517;34;20012;-86
2022/05/25 10:40:19;;;;;;;;;;;17.20;69.50;;;16.46;64.91;96135.53;4101941;34;19904;-87
2022/05/25 10:42:59;;;;;;;;;;;17.30;69.60;;;16.47;64.88;96130.84;4125327;34;20200;-85
2022/05/25 10:45:40;;;;;;;;;;;17.30;69.70;;;16.47;64.97;96131.66;4101481;34;20113;-85
2022/05/25 10:48:14;;;;;;;;;;;17.20;69.60;;;16.47;64.90;96131.66;4123577;34;20239;-85
2022/05/25 10:50:51;;;;;;;;;;;17.30;69.70;;;16.47;65.07;96148.22;4124187;34;20188;-86
2022/05/25 10:53:30;;;;;;;;;;;17.30;69.80;;;16.50;65.27;96141.28;4124083;34;20320;-85
2022/05/25 10:56:07;;;;;;;;;;;17.30;69.60;;;16.50;64.96;96131.03;4146563;34;20064;-85
2022/05/25 10:58:47;;;;;;;;;;;17.30;69.60;;;16.50;64.98;96135.75;4058133;34;19972;-85
2022/05/25 11:01:27;;;;;;;;;;;17.30;69.70;;;16.50;64.92;96136.56;4101773;34;20163;-86
2022/05/25 11:04:18;;;;;;;;;;;17.30;69.60;;;16.51;65.23;96132.69;4101666;34;19904;-86
2022/05/25 11:06:55;;;;;;;;;;;17.30;69.70;;;16.48;64.96;96127.75;4079363;34;20223;-85
2022/05/25 11:09:51;;;;;;;;;;;17.30;69.60;;;16.50;65.04;96120.00;4079562;34;19976;-86
2022/05/25 11:12:25;;;;;;;;;;;17.30;69.70;;;16.51;65.05;96121.63;4138474;34;20006;-85
2022/05/25 11:15:02;;;;;;;;;;;17.30;69.70;;;16.51;64.96;96127.16;4151010;34;19911;-85
2022/05/25 11:17:45;;;;;;;;;;;17.30;69.60;;;16.52;64.98;96123.25;4150477;34;19904;-86
2022/05/25 11:20:24;;;;;;;;;;;17.30;69.60;;;16.53;64.99;96119.38;4106123;34;20075;-86
2022/05/25 11:23:31;;;;;;;;;;;17.30;69.60;;;16.54;65.06;96115.47;4105805;34;19911;-85
2022/05/25 11:26:14;;;;;;;;;;;17.30;69.60;;;16.56;64.87;96109.63;4127903;34;20250;-85
2022/05/25 11:28:52;;;;;;;;;;;17.40;69.50;;;16.57;64.90;96108.50;4128193;34;19903;-86
2022/05/25 11:31:29;;;;;;;;;;;17.30;69.60;;;16.56;64.86;96102.19;4128158;34;19908;-86
2022/05/25 11:34:17;;;;;;;;;;;17.40;69.50;;;16.61;64.91;96097.63;4079037;34;20160;-86
2022/05/25 11:37:00;;;;;;;;;;;17.40;69.40;;;16.64;64.60;96097.03;4082189;34;20228;-86
2022/05/25 11:39:37;;;;;;;;;;;17.40;69.40;;;16.64;64.63;96092.31;4150686;34;19904;-86
2022/05/25 11:42:12;;;;;;;;;;;17.40;69.30;;;16.67;64.80;96097.22;4123373;34;20002;-86
2022/05/25 11:45:03;;;;;;;;;;;17.50;69.40;;;16.68;64.78;96092.50;4101235;34;20094;-86
2022/05/25 11:47:46;;;;;;;;;;;17.50;69.30;;;16.68;64.69;96093.31;4122988;34;20161;-86
2022/05/25 11:50:25;;;;;;;;;;;17.50;69.30;;;16.68;64.86;96092.50;4123371;34;20262;-86
2022/05/25 11:53:36;;;;;;;;;;;17.50;69.20;;;16.69;64.81;96088.63;4101289;34;20483;-85
2022/05/25 11:56:16;;;;;;;;;;;17.50;69.20;;;16.69;64.62;96083.91;4088718;34;19915;-85
2022/05/25 11:58:57;;;;;;;;;;;17.50;69.30;;;16.70;64.74;96084.72;4105580;34;19911;-86
2022/05/25 12:01:32;;;;;;;;;;;17.50;69.30;;;16.71;64.93;96086.38;4150505;34;20174;-86
2022/05/25 12:04:31;;;;;;;;;;;17.50;69.30;;;16.72;64.75;96087.97;4127792;34;19910;-86
2022/05/25 12:07:27;;;;;;;;;;;17.50;69.30;;;16.71;64.69;96080.84;4100160;34;19984;-86
2022/05/25 12:10:19;;;;;;;;;;;17.50;70.10;;;16.71;64.78;96086.38;4078861;34;19904;-85
2022/05/25 12:12:50;;;;;;;;;;;17.50;69.20;;;16.71;65.04;96078.88;4131634;34;19903;-86
2022/05/25 12:15:23;;;;;;;;;;;17.50;69.30;;;16.71;64.75;96075.31;4151166;34;19911;-86
2022/05/25 12:18:15;;;;;;;;;;;17.50;70.20;;;16.71;64.71;96069.78;4126868;34;20161;-86
2022/05/25 12:20:47;;;;;;;;;;;17.50;69.30;;;16.72;64.77;96071.38;4127912;34;19933;-86
2022/05/25 12:23:19;;;;;;;;;;;17.50;69.30;;;16.72;64.82;96069.47;4127631;34;19962;-86
2022/05/25 12:25:53;;;;;;;;;;;17.50;69.20;;;16.73;64.64;96075.78;4150206;34;20076;-86
2022/05/25 12:28:24;;;;;;;;;;;17.50;69.30;;;16.72;64.76;96066.69;4105276;34;20053;-86
2022/05/25 12:30:57;;;;;;;;;;;17.50;69.30;;;16.72;64.86;96060.31;4105435;34;20095;-86
2022/05/25 12:33:28;;;;;;;;;;;17.50;69.40;;;16.72;64.81;96054.81;4127639;34;19904;-86
2022/05/25 12:35:56;;;;;;;;;;;17.50;69.40;;;16.71;64.92;96053.19;4104261;34;19910;-86